EST,Max TemperatureF,Mean TemperatureF,Min TemperatureF,Max Dew PointF,MeanDew PointF,Min DewpointF,Max Humidity, Mean Humidity, Min Humidity, Max Sea Level PressureIn, Mean Sea Level PressureIn, Min Sea Level PressureIn, Max VisibilityMiles, Mean VisibilityMiles, Min VisibilityMiles, Max Wind SpeedMPH, Mean Wind SpeedMPH, Max Gust SpeedMPH,PrecipitationIn, CloudCover, Events, WindDirDegrees
2013-1-1,21,19,16,14,12,9,88,75,62,30.15,30.08,30.00,10,9,5,18,8,24,T,8,Snow,271
2013-1-2,22,19,16,19,15,10,84,79,74,30.15,30.09,30.01,10,9,3,16,8,20,T,8,Snow,237
2013-1-3,26,23,20,22,19,17,92,84,75,30.09,30.03,29.96,10,8,3,20,10,28,0.02,8,Snow,240
2013-1-4,26,24,21,21,19,17,92,79,69,30.12,29.98,29.88,10,10,9,20,14,30,0.00,4,,249
2013-1-5,32,22,12,31,22,10,96,87,78,30.23,30.07,29.85,10,6,1,16,6,21,0.02,5,Snow,190
2013-1-6,33,30,27,31,27,21,92,85,78,30.26,29.91,29.77,10,6,2,14,7,17,0.02,8,Snow,278
2013-1-7,35,29,23,27,22,19,96,78,59,30.28,30.14,29.99,10,10,10,23,12,35,0.00,4,,209
2013-1-8,37,31,24,29,27,23,100,88,75,30.19,30.12,30.03,10,4,0,13,7,18,0.00,4,Fog,196
2013-1-9,39,33,27,31,26,22,87,75,53,30.41,30.02,29.84,10,9,2,24,11,40,0.01,4,Snow,238
2013-1-10,40,28,16,28,22,16,100,75,50,30.56,30.44,30.16,10,9,1,14,5,20,0.02,0,Rain,148
2013-1-11,43,38,32,43,37,30,100,95,89,30.12,29.82,29.67,10,4,0,18,9,26,0.63,8,Fog-Rain,168
2013-1-12,52,43,34,45,38,26,100,73,45,29.96,29.79,29.69,10,9,6,23,11,35,0.01,4,Rain,216
2013-1-13,34,29,23,32,29,18,100,91,81,30.01,29.88,29.81,10,8,2,21,6,28,0.23,8,Rain-Snow,285
2013-1-14,23,19,14,18,13,11,88,78,68,30.41,30.25,29.97,10,8,2,21,9,30,T,7,Snow,253
2013-1-15,27,21,15,15,13,10,84,70,55,30.41,30.32,30.12,10,10,9,16,7,23,T,2,,238
2013-1-16,30,24,17,27,21,14,92,75,58,30.09,29.82,29.64,10,6,1,23,12,32,0.02,6,Snow,249
2013-1-17,24,17,10,18,9,1,84,76,67,30.32,30.17,29.90,10,6,1,18,8,28,0.04,8,Snow,300
2013-1-18,33,17,1,27,12,-1,88,76,63,30.40,30.15,29.76,10,8,2,21,8,30,0.03,7,Snow,205
2013-1-19,38,35,32,35,31,26,92,84,75,29.83,29.65,29.42,10,9,1,31,12,44,0.10,8,Rain-Snow-Thunderstorm,228
2013-1-20,33,21,8,28,11,1,88,76,64,30.17,29.84,29.41,10,4,0,33,16,44,0.08,8,Fog-Snow,286
2013-1-21,9,3,-3,5,-2,-13,83,74,65,30.09,29.96,29.87,10,5,1,21,13,28,0.01,6,Snow,278
2013-1-22,4,0,-5,-4,-9,-13,79,65,51,30.26,30.18,30.09,10,9,2,18,12,24,T,4,Snow,275
2013-1-23,12,6,0,7,3,-3,87,80,73,30.24,30.08,29.98,10,5,1,14,7,20,0.02,7,Snow,249
2013-1-24,12,6,-1,1,-3,-6,88,69,50,30.63,30.51,30.23,10,10,10,12,4,18,0.00,0,,349
2013-1-25,17,12,7,14,8,-3,92,78,63,30.48,30.10,29.92,10,4,0,13,6,17,0.17,8,Fog-Snow,160
2013-1-26,26,16,6,14,12,5,96,78,60,30.42,30.25,30.05,10,8,2,9,4,13,T,5,Snow,318
2013-1-27,27,18,8,22,19,9,96,82,68,30.43,30.24,30.04,10,4,0,14,7,21,0.39,8,Fog-Snow,146
2013-1-28,34,29,24,34,30,21,100,94,88,30.06,29.89,29.78,10,4,0,15,4,22,0.06,8,Fog-Rain,232
2013-1-29,48,40,31,47,40,30,100,95,89,29.97,29.62,29.40,10,4,0,16,7,22,1.21,8,Fog-Rain-Thunderstorm,149
2013-1-30,44,34,24,44,33,18,100,91,81,29.39,29.21,29.04,10,5,0,23,9,32,0.40,8,Fog-Rain-Snow,327
2013-1-31,24,19,14,16,11,7,84,73,61,29.85,29.49,29.24,10,4,0,23,16,35,0.07,8,Fog-Snow,286